Time;durP1;ratioP1;P1;durP2;ratioP2;P2;SDS_P1;SDS_P2;PMS_P1;PMS_P2;Temp;Humidity;BMP_temperature;BMP_pressure;BME280_temperature;BME280_humidity;BME280_pressure;Samples;Min_cycle;Max_cycle;Signal;HPM_P1;HPM_P2
2023/07/14 00:01:32;;;;;;;1999.90;999.90;;;18.70;99.90;;;;;;5012381;28;20442;-70
2023/07/14 00:03:57;;;;;;;1999.90;999.90;;;18.60;99.90;;;;;;5009273;28;20562;-71
2023/07/14 00:06:23;;;;;;;1999.90;999.90;;;18.60;99.90;;;;;;5015033;28;20238;-70
2023/07/14 00:08:49;;;;;;;1999.90;999.90;;;18.50;99.90;;;;;;5006714;28;20172;-71
2023/07/14 00:11:21;;;;;;;1999.90;999.90;;;18.40;99.90;;;;;;4998357;28;20196;-70
2023/07/14 00:13:51;;;;;;;1999.90;999.90;;;18.40;99.90;;;;;;4996500;28;20403;-71
2023/07/14 00:16:20;;;;;;;1999.90;999.90;;;18.30;99.90;;;;;;5006700;28;20488;-70
2023/07/14 00:18:46;;;;;;;1999.90;999.90;;;18.30;99.90;;;;;;5014832;28;20408;-70
2023/07/14 00:21:22;;;;;;;1999.90;999.90;;;18.20;99.90;;;;;;5006580;28;20871;-70
2023/07/14 00:23:48;;;;;;;1999.90;999.90;;;18.10;99.90;;;;;;4995075;28;20404;-70
2023/07/14 00:26:19;;;;;;;1999.90;999.90;;;18.10;99.90;;;;;;4994983;28;20923;-70
2023/07/14 00:28:48;;;;;;;1999.90;999.90;;;18.10;99.90;;;;;;4994427;28;20475;-70
2023/07/14 00:31:15;;;;;;;1999.90;999.90;;;18.10;99.90;;;;;;5013089;28;20436;-70
2023/07/14 00:33:42;;;;;;;1999.90;999.90;;;18.10;99.90;;;;;;5006497;28;20400;-70
2023/07/14 00:36:08;;;;;;;1999.90;999.90;;;18.20;99.90;;;;;;5014409;28;20399;-70
2023/07/14 00:38:34;;;;;;;1999.90;999.90;;;18.20;99.90;;;;;;5014409;28;20414;-70
2023/07/14 00:41:01;;;;;;;1999.90;999.90;;;18.20;99.90;;;;;;5013850;28;20678;-71
2023/07/14 00:43:29;;;;;;;1999.90;999.90;;;18.20;99.90;;;;;;5006144;28;20406;-71
2023/07/14 00:45:57;;;;;;;1999.90;999.90;;;18.30;99.90;;;;;;5008612;28;20420;-70
2023/07/14 00:48:25;;;;;;;1999.90;999.90;;;18.30;99.90;;;;;;5011755;28;20406;-70
2023/07/14 00:51:05;;;;;;;1999.90;999.90;;;18.30;99.90;;;;;;5005702;28;20541;-70
2023/07/14 00:53:36;;;;;;;1999.90;999.90;;;18.30;99.90;;;;;;5014156;28;20874;-70
2023/07/14 00:56:30;;;;;;;1999.90;999.90;;;18.30;99.90;;;;;;5014089;28;20924;-70
2023/07/14 00:58:58;;;;;;;1999.90;999.90;;;18.30;99.90;;;;;;5007957;28;20439;-70
2023/07/14 01:01:24;;;;;;;1999.90;999.90;;;18.30;99.90;;;;;;5011725;28;20447;-71
2023/07/14 01:03:57;;;;;;;1999.90;999.90;;;18.40;99.90;;;;;;5007018;28;20485;-70
2023/07/14 01:06:39;;;;;;;1999.90;999.90;;;18.40;99.90;;;;;;5012828;28;20884;-70
2023/07/14 01:09:12;;;;;;;1999.90;999.90;;;18.50;99.90;;;;;;5009159;28;20556;-70
2023/07/14 01:11:46;;;;;;;1999.90;999.90;;;18.50;99.90;;;;;;5010101;28;20432;-70
2023/07/14 01:14:16;;;;;;;1999.90;999.90;;;18.50;99.90;;;;;;5009925;28;20427;-70
2023/07/14 01:16:43;;;;;;;1999.90;999.90;;;18.50;99.90;;;;;;5009947;28;20840;-70
2023/07/14 01:19:25;;;;;;;1999.90;999.90;;;18.50;99.90;;;;;;5009380;28;20408;-70
2023/07/14 01:21:58;;;;;;;1999.90;999.90;;;18.50;99.90;;;;;;5001678;28;20519;-71
2023/07/14 01:24:31;;;;;;;1999.90;999.90;;;18.60;99.90;;;;;;4993923;28;20463;-70
2023/07/14 01:27:05;;;;;;;1999.90;999.90;;;18.60;99.90;;;;;;4994097;28;20507;-70
2023/07/14 01:29:32;;;;;;;1999.90;999.90;;;18.70;99.90;;;;;;4994790;28;20544;-70
2023/07/14 01:31:59;;;;;;;1999.90;999.90;;;18.70;99.90;;;;;;5007015;28;20439;-71
2023/07/14 01:34:25;;;;;;;1999.90;999.90;;;18.70;99.90;;;;;;5011296;28;20426;-71
2023/07/14 01:36:56;;;;;;;1999.90;999.90;;;18.70;99.90;;;;;;5013264;28;20499;-70
2023/07/14 01:39:22;;;;;;;1999.90;999.90;;;18.60;99.90;;;;;;5013618;28;20855;-70
2023/07/14 01:41:48;;;;;;;1999.90;999.90;;;18.50;99.90;;;;;;5008053;28;20971;-70
2023/07/14 01:44:19;;;;;;;1999.90;999.90;;;18.50;99.90;;;;;;5009585;28;20465;-70
2023/07/14 01:46:46;;;;;;;1999.90;999.90;;;18.40;99.90;;;;;;5008576;28;20425;-71
2023/07/14 01:49:36;;;;;;;1999.90;999.90;;;18.30;99.90;;;;;;5009254;28;20854;-70
2023/07/14 01:52:07;;;;;;;1999.90;999.90;;;18.30;99.90;;;;;;5002734;28;20848;-71
2023/07/14 01:54:35;;;;;;;1999.90;999.90;;;18.20;99.90;;;;;;5012117;28;20412;-70
2023/07/14 01:57:06;;;;;;;1999.90;999.90;;;18.10;99.90;;;;;;5012907;28;20449;-71
2023/07/14 01:59:38;;;;;;;1999.90;999.90;;;18.10;99.90;;;;;;5012760;28;20444;-70
2023/07/14 02:02:11;;;;;;;1999.90;999.90;;;18.10;99.90;;;;;;5002106;28;20496;-71
2023/07/14 02:04:38;;;;;;;1999.90;999.90;;;18.10;99.90;;;;;;5012308;28;20506;-70
2023/07/14 02:07:04;;;;;;;1999.90;999.90;;;18.00;99.90;;;;;;5012761;28;20753;-70
2023/07/14 02:09:31;;;;;;;1999.90;999.90;;;18.00;99.90;;;;;;5012772;28;20463;-70
2023/07/14 02:12:00;;;;;;;1999.90;999.90;;;18.00;99.90;;;;;;5012260;28;20712;-70
2023/07/14 02:14:31;;;;;;;1999.90;999.90;;;18.00;99.90;;;;;;5004458;28;20433;-70
2023/07/14 02:17:04;;;;;;;1999.90;999.90;;;17.90;99.90;;;;;;5006409;28;20424;-70
2023/07/14 02:19:30;;;;;;;1999.90;999.90;;;17.90;99.90;;;;;;5011377;28;20415;-71
2023/07/14 02:21:56;;;;;;;1999.90;999.90;;;17.80;99.90;;;;;;5006546;28;20491;-70
2023/07/14 02:24:24;;;;;;;1999.90;999.90;;;17.70;99.90;;;;;;5009995;28;20453;-71
2023/07/14 02:27:02;;;;;;;1999.90;999.90;;;17.70;99.90;;;;;;5012535;28;20177;-70
2023/07/14 02:29:29;;;;;;;1999.90;999.90;;;17.70;99.90;;;;;;5012494;28;20408;-70
2023/07/14 02:32:03;;;;;;;1999.90;999.90;;;17.80;99.90;;;;;;5011443;28;20446;-70
2023/07/14 02:34:47;;;;;;;1999.90;999.90;;;17.70;99.90;;;;;;5004186;28;20954;-70
2023/07/14 02:37:47;;;;;;;1999.90;999.90;;;17.70;99.90;;;;;;5011912;28;20842;-70
2023/07/14 02:40:12;;;;;;;1999.90;999.90;;;17.70;99.90;;;;;;5008541;28;20398;-70
2023/07/14 02:42:39;;;;;;;1999.90;999.90;;;17.70;99.90;;;;;;5003993;28;20408;-71
2023/07/14 02:45:06;;;;;;;1999.90;999.90;;;17.70;99.90;;;;;;5011756;28;20690;-71
2023/07/14 02:47:35;;;;;;;1999.90;999.90;;;17.60;99.90;;;;;;5003913;28;20412;-70
2023/07/14 02:50:01;;;;;;;1999.90;999.90;;;17.60;99.90;;;;;;5012372;28;20452;-71
2023/07/14 02:52:26;;;;;;;1999.90;999.90;;;17.50;99.90;;;;;;5005609;28;20434;-71
2023/07/14 02:54:52;;;;;;;1999.90;999.90;;;17.50;99.90;;;;;;5018941;28;20176;-71
2023/07/14 02:57:18;;;;;;;1999.90;999.90;;;17.40;99.90;;;;;;5017976;28;20174;-70
2023/07/14 02:59:44;;;;;;;1999.90;999.90;;;17.40;99.90;;;;;;5011029;28;20432;-71
2023/07/14 03:02:09;;;;;;;1999.90;999.90;;;17.30;99.90;;;;;;5018343;28;20192;-70
2023/07/14 03:04:35;;;;;;;1999.90;999.90;;;17.20;99.90;;;;;;5018562;28;20186;-70
2023/07/14 03:07:01;;;;;;;1999.90;999.90;;;17.10;99.90;;;;;;5018657;28;20167;-70
2023/07/14 03:09:27;;;;;;;1999.90;999.90;;;17.10;99.90;;;;;;5019173;28;20177;-70
2023/07/14 03:11:52;;;;;;;1999.90;999.90;;;17.00;99.90;;;;;;5012904;28;20794;-70
2023/07/14 03:14:18;;;;;;;1999.90;999.90;;;16.90;99.90;;;;;;5015584;28;20594;-70
2023/07/14 03:16:44;;;;;;;1999.90;999.90;;;16.70;99.90;;;;;;5018652;28;20658;-70
2023/07/14 03:19:09;;;;;;;1999.90;999.90;;;16.60;99.90;;;;;;5018488;28;20193;-70
2023/07/14 03:21:35;;;;;;;1999.90;999.90;;;16.60;99.90;;;;;;5018126;28;20820;-70
2023/07/14 03:24:01;;;;;;;1999.90;999.90;;;16.50;99.90;;;;;;5018488;28;20192;-70
2023/07/14 03:26:26;;;;;;;1999.90;999.90;;;16.50;99.90;;;;;;5018391;28;20533;-70
2023/07/14 03:28:52;;;;;;;1999.90;999.90;;;16.50;99.90;;;;;;5018482;28;20170;-71
2023/07/14 03:31:17;;;;;;;1999.90;999.90;;;16.50;99.90;;;;;;5018017;28;20585;-70
2023/07/14 03:33:43;;;;;;;1999.90;999.90;;;16.50;99.90;;;;;;5010422;28;20217;-70
2023/07/14 03:36:15;;;;;;;1999.90;999.90;;;16.50;99.90;;;;;;5018302;28;20176;-70
2023/07/14 03:38:44;;;;;;;1999.90;999.90;;;16.50;99.90;;;;;;5018391;28;20164;-71
2023/07/14 03:41:14;;;;;;;1999.90;999.90;;;16.60;99.90;;;;;;5017911;28;20429;-70
2023/07/14 03:43:40;;;;;;;1999.90;999.90;;;16.60;99.90;;;;;;5018338;28;20432;-70
2023/07/14 03:46:07;;;;;;;1999.90;999.90;;;16.60;99.90;;;;;;5018251;28;20438;-70
2023/07/14 03:48:33;;;;;;;1999.90;999.90;;;16.50;99.90;;;;;;5018193;28;20171;-71
2023/07/14 03:51:03;;;;;;;1999.90;999.90;;;16.40;99.90;;;;;;5017887;28;20433;-70
2023/07/14 03:53:29;;;;;;;1999.90;999.90;;;16.30;99.90;;;;;;5018187;28;20403;-70
2023/07/14 03:55:55;;;;;;;1999.90;999.90;;;16.30;99.90;;;;;;5018153;28;20401;-70
2023/07/14 03:58:20;;;;;;;1999.90;999.90;;;16.30;99.90;;;;;;5017985;28;20490;-71
2023/07/14 04:00:46;;;;;;;1999.90;999.90;;;16.30;99.90;;;;;;5018064;28;20219;-70
2023/07/14 04:03:11;;;;;;;1999.90;999.90;;;16.20;99.90;;;;;;5017801;28;20637;-70
2023/07/14 04:05:37;;;;;;;1999.90;999.90;;;16.20;99.90;;;;;;5014976;28;20205;-70
2023/07/14 04:08:03;;;;;;;1999.90;999.90;;;16.20;99.90;;;;;;5015002;28;20650;-70
2023/07/14 04:10:29;;;;;;;1999.90;999.90;;;16.20;99.90;;;;;;5014894;28;20205;-70
2023/07/14 04:12:59;;;;;;;1999.90;999.90;;;16.20;99.90;;;;;;5014642;28;20404;-70
2023/07/14 04:15:24;;;;;;;1999.90;999.90;;;16.20;99.90;;;;;;5006574;28;20452;-70
2023/07/14 04:17:50;;;;;;;1999.90;999.90;;;16.20;99.90;;;;;;5014793;28;20529;-71
2023/07/14 04:20:15;;;;;;;1999.90;999.90;;;16.20;99.90;;;;;;5014817;28;20176;-70
2023/07/14 04:22:41;;;;;;;1999.90;999.90;;;16.20;99.90;;;;;;5014517;28;20584;-70
2023/07/14 04:25:09;;;;;;;1999.90;999.90;;;16.20;99.90;;;;;;5014586;28;20198;-70
2023/07/14 04:27:36;;;;;;;1999.90;999.90;;;16.10;99.90;;;;;;5014601;28;20177;-70
2023/07/14 04:30:02;;;;;;;1999.90;999.90;;;16.10;99.90;;;;;;5014903;28;20438;-70
2023/07/14 04:32:28;;;;;;;1999.90;999.90;;;16.10;99.90;;;;;;5014378;28;20408;-70
2023/07/14 04:34:54;;;;;;;1999.90;999.90;;;16.10;99.90;;;;;;5014449;28;20507;-70
2023/07/14 04:37:19;;;;;;;1999.90;999.90;;;16.10;99.90;;;;;;5014648;28;20218;-70
2023/07/14 04:39:45;;;;;;;1999.90;999.90;;;16.20;99.90;;;;;;5014422;28;20255;-70
2023/07/14 04:42:11;;;;;;;1999.90;999.90;;;16.20;99.90;;;;;;5014023;28;20208;-70
2023/07/14 04:44:37;;;;;;;1999.90;999.90;;;16.20;99.90;;;;;;5014714;28;20945;-71
2023/07/14 04:47:03;;;;;;;1999.90;999.90;;;16.30;99.90;;;;;;5014484;28;20199;-70
2023/07/14 04:49:28;;;;;;;1999.90;999.90;;;16.30;99.90;;;;;;5013759;28;20267;-70
2023/07/14 04:51:54;;;;;;;1999.90;999.90;;;16.40;99.90;;;;;;5005618;28;20189;-70
2023/07/14 04:54:23;;;;;;;1999.90;999.90;;;16.40;99.90;;;;;;5014087;28;20329;-70
2023/07/14 04:56:49;;;;;;;1999.90;999.90;;;16.40;99.90;;;;;;5009248;28;20181;-70
2023/07/14 04:59:15;;;;;;;1999.90;999.90;;;16.40;99.90;;;;;;5010502;28;20438;-70
2023/07/14 05:01:40;;;;;;;1999.90;999.90;;;16.50;99.90;;;;;;5013753;28;20500;-70
2023/07/14 05:04:06;;;;;;;1999.90;999.90;;;16.50;99.90;;;;;;5013334;28;20196;-70
2023/07/14 05:06:32;;;;;;;1999.90;999.90;;;16.60;99.90;;;;;;5011305;28;20649;-70
2023/07/14 05:08:57;;;;;;;1999.90;999.90;;;16.70;99.90;;;;;;5008049;28;20163;-71
2023/07/14 05:11:23;;;;;;;1999.90;999.90;;;16.80;99.90;;;;;;5013425;28;20200;-71
2023/07/14 05:13:51;;;;;;;1999.90;999.90;;;16.80;99.90;;;;;;5013793;28;20169;-70
2023/07/14 05:16:17;;;;;;;1999.90;999.90;;;16.90;99.90;;;;;;5013247;28;20168;-70
2023/07/14 05:18:42;;;;;;;1999.90;999.90;;;17.00;99.90;;;;;;5013710;28;20415;-70
2023/07/14 05:21:08;;;;;;;1999.90;999.90;;;17.10;99.90;;;;;;5005999;28;20190;-70
2023/07/14 05:23:34;;;;;;;1999.90;999.90;;;17.20;99.90;;;;;;5012799;28;20175;-70
2023/07/14 05:26:00;;;;;;;1999.90;999.90;;;17.30;99.90;;;;;;5013513;28;20459;-70
2023/07/14 05:28:26;;;;;;;1999.90;999.90;;;17.40;99.90;;;;;;5013498;28;20179;-70
2023/07/14 05:30:51;;;;;;;1999.90;999.90;;;17.50;99.90;;;;;;5013261;28;20510;-70
2023/07/14 05:33:18;;;;;;;1999.90;999.90;;;17.60;99.90;;;;;;5013270;28;20171;-70
2023/07/14 05:35:45;;;;;;;1999.90;999.90;;;17.70;99.90;;;;;;5013283;28;20180;-70
2023/07/14 05:38:11;;;;;;;1999.90;999.90;;;17.70;99.90;;;;;;5005622;28;20441;-71
2023/07/14 05:40:37;;;;;;;1999.90;999.90;;;17.90;99.90;;;;;;4993542;28;20863;-70
2023/07/14 05:43:03;;;;;;;1999.90;999.90;;;17.90;99.90;;;;;;4993308;28;20273;-70
2023/07/14 05:45:29;;;;;;;1999.90;999.90;;;17.90;99.90;;;;;;4993454;28;20546;-70
2023/07/14 05:47:54;;;;;;;1999.90;999.90;;;18.00;99.90;;;;;;4993670;28;20410;-70
2023/07/14 05:50:20;;;;;;;1999.90;999.90;;;18.10;99.90;;;;;;4996422;28;20168;-70
2023/07/14 05:52:46;;;;;;;1999.90;999.90;;;18.20;99.90;;;;;;5007319;28;20541;-70
2023/07/14 05:55:12;;;;;;;1999.90;999.90;;;18.30;99.90;;;;;;5009226;28;20733;-71
2023/07/14 05:57:38;;;;;;;1999.90;999.90;;;18.40;99.90;;;;;;5004733;28;20546;-71
2023/07/14 06:00:13;;;;;;;1999.90;999.90;;;18.50;99.90;;;;;;5012889;28;20426;-70
2023/07/14 06:02:40;;;;;;;1999.90;999.90;;;18.60;99.90;;;;;;5012768;28;20420;-70
2023/07/14 06:05:06;;;;;;;1999.90;999.90;;;18.70;99.90;;;;;;5012800;28;20814;-70
2023/07/14 06:07:32;;;;;;;1999.90;999.90;;;18.90;99.90;;;;;;5012779;28;20416;-70
2023/07/14 06:09:57;;;;;;;1999.90;999.90;;;19.00;99.90;;;;;;5012671;28;20785;-70
2023/07/14 06:12:23;;;;;;;1999.90;999.90;;;19.10;99.90;;;;;;5004111;28;20431;-70
2023/07/14 06:14:48;;;;;;;1999.90;999.90;;;19.30;99.90;;;;;;5012698;28;20601;-70
2023/07/14 06:17:14;;;;;;;1999.90;999.90;;;19.40;99.90;;;;;;5012635;28;20177;-70
2023/07/14 06:19:40;;;;;;;1999.90;999.90;;;19.60;99.90;;;;;;5012602;28;20169;-70
2023/07/14 06:22:06;;;;;;;1999.90;999.90;;;19.70;99.90;;;;;;5012231;28;20215;-70
2023/07/14 06:24:34;;;;;;;1999.90;999.90;;;19.90;99.90;;;;;;5012412;28;20193;-68
2023/07/14 06:27:00;;;;;;;1999.90;999.90;;;19.90;99.90;;;;;;5012029;28;20435;-70
2023/07/14 06:29:25;;;;;;;1999.90;999.90;;;20.10;99.90;;;;;;5012372;28;21026;-70
2023/07/14 06:31:51;;;;;;;1999.90;999.90;;;20.10;99.90;;;;;;5012095;28;20187;-71
2023/07/14 06:34:17;;;;;;;1999.90;999.90;;;20.20;99.90;;;;;;5012416;28;20165;-70
2023/07/14 06:36:42;;;;;;;1999.90;999.90;;;20.20;99.90;;;;;;5012366;28;20236;-70
2023/07/14 06:39:08;;;;;;;1999.90;999.90;;;20.30;99.90;;;;;;5012275;28;20178;-69
2023/07/14 06:41:34;;;;;;;1999.90;999.90;;;20.30;99.90;;;;;;5011922;28;20287;-70
2023/07/14 06:44:01;;;;;;;1999.90;999.90;;;20.30;99.90;;;;;;5012169;28;20169;-70
2023/07/14 06:46:27;;;;;;;1999.90;999.90;;;20.40;99.90;;;;;;5012386;28;20170;-71
2023/07/14 06:48:52;;;;;;;1999.90;999.90;;;20.40;99.90;;;;;;5012366;28;20517;-70
2023/07/14 06:51:18;;;;;;;1999.90;999.90;;;20.40;99.90;;;;;;5011817;28;20190;-70
2023/07/14 06:53:45;;;;;;;1999.90;999.90;;;20.40;99.90;;;;;;5012127;28;20632;-70
2023/07/14 06:56:11;;;;;;;1999.90;999.90;;;20.40;99.90;;;;;;5012383;28;20182;-70
2023/07/14 06:58:37;;;;;;;1999.90;999.90;;;20.40;99.90;;;;;;5012384;28;20423;-71
2023/07/14 07:01:03;;;;;;;1999.90;999.90;;;20.50;99.90;;;;;;5011810;28;20198;-70
2023/07/14 07:03:28;;;;;;;1999.90;999.90;;;20.60;99.90;;;;;;5012171;28;20548;-71
2023/07/14 07:05:56;;;;;;;1999.90;999.90;;;20.80;99.90;;;;;;5011872;28;20565;-71
2023/07/14 07:08:21;;;;;;;1999.90;999.90;;;20.90;99.90;;;;;;5012030;28;20251;-71
2023/07/14 07:10:48;;;;;;;1999.90;999.90;;;21.10;99.90;;;;;;5011990;28;20975;-70
2023/07/14 07:13:14;;;;;;;1999.90;999.90;;;21.20;99.90;;;;;;5011917;28;20184;-71
2023/07/14 07:15:40;;;;;;;1999.90;999.90;;;21.40;99.90;;;;;;5011939;28;20464;-71
2023/07/14 07:18:06;;;;;;;1999.90;999.90;;;21.50;99.90;;;;;;5012031;28;20484;-69
2023/07/14 07:20:41;;;;;;;1999.90;999.90;;;21.70;99.90;;;;;;5011778;28;20417;-71
2023/07/14 07:23:07;;;;;;;1999.90;999.90;;;21.80;99.90;;;;;;5010756;28;20777;-70
2023/07/14 07:25:32;;;;;;;1999.90;999.90;;;22.00;99.90;;;;;;5011214;28;20455;-70
2023/07/14 07:27:58;;;;;;;1999.90;999.90;;;22.00;99.90;;;;;;5003705;28;20191;-71
2023/07/14 07:30:25;;;;;;;1999.90;999.90;;;22.10;99.90;;;;;;5011236;28;20211;-71
2023/07/14 07:32:51;;;;;;;1999.90;999.90;;;22.10;99.90;;;;;;5003469;28;20180;-70
2023/07/14 07:35:17;;;;;;;1999.90;999.90;;;22.10;99.90;;;;;;5011726;28;20480;-70
2023/07/14 07:37:42;;;;;;;1999.90;999.90;;;22.20;99.90;;;;;;5008222;28;20184;-71
2023/07/14 07:40:09;;;;;;;1999.90;999.90;;;22.30;99.90;;;;;;5010935;28;20393;-71
2023/07/14 07:42:34;;;;;;;1999.90;999.90;;;22.60;99.90;;;;;;5015284;28;20177;-70
2023/07/14 07:45:01;;;;;;;1999.90;999.90;;;22.70;99.90;;;;;;5014889;28;20434;-69
2023/07/14 07:47:28;;;;;;;1999.90;999.90;;;23.00;99.90;;;;;;5007216;28;20189;-68
2023/07/14 07:49:53;;;;;;;1999.90;999.90;;;23.10;99.90;;;;;;5015299;28;20891;-69
2023/07/14 07:52:20;;;;;;;1999.90;999.90;;;23.20;99.90;;;;;;5015208;28;20189;-69
2023/07/14 07:54:46;;;;;;;1999.90;999.90;;;23.20;99.90;;;;;;5012620;28;20215;-69
2023/07/14 07:57:12;;;;;;;1999.90;999.90;;;23.10;99.90;;;;;;5006767;28;20411;-69
2023/07/14 07:59:38;;;;;;;1999.90;999.90;;;23.20;99.90;;;;;;5015028;28;20464;-69
2023/07/14 08:02:06;;;;;;;1999.90;999.90;;;23.30;99.90;;;;;;5010757;28;20423;-71
2023/07/14 08:04:36;;;;;;;1999.90;999.90;;;23.50;99.90;;;;;;5027179;28;20458;-72
2023/07/14 08:07:02;;;;;;;1999.90;999.90;;;23.50;99.90;;;;;;5009705;28;20484;-69
2023/07/14 08:09:28;;;;;;;1999.90;999.90;;;23.60;99.90;;;;;;4997035;28;20487;-70
2023/07/14 08:11:57;;;;;;;1999.90;999.90;;;23.80;99.90;;;;;;5005947;28;20197;-70
2023/07/14 08:14:23;;;;;;;1999.90;999.90;;;23.70;99.90;;;;;;5002064;28;20181;-69
2023/07/14 08:16:49;;;;;;;1999.90;999.90;;;23.60;99.90;;;;;;4993798;28;20749;-69
2023/07/14 08:19:15;;;;;;;1999.90;999.90;;;23.50;99.90;;;;;;5021606;28;20186;-69
2023/07/14 08:21:41;;;;;;;1999.90;999.90;;;23.50;99.90;;;;;;5012555;28;20437;-70
2023/07/14 08:24:08;;;;;;;1999.90;999.90;;;23.50;99.90;;;;;;5009937;28;20205;-70
2023/07/14 08:26:35;;;;;;;1999.90;999.90;;;23.50;99.90;;;;;;5015052;28;20397;-70
2023/07/14 08:29:01;;;;;;;1999.90;999.90;;;23.60;99.90;;;;;;5005883;28;20419;-70
2023/07/14 08:31:27;;;;;;;1999.90;999.90;;;23.60;99.90;;;;;;5013263;28;20851;-70
2023/07/14 08:33:53;;;;;;;1999.90;999.90;;;23.70;99.90;;;;;;5013989;28;20469;-70
2023/07/14 08:36:18;;;;;;;1999.90;999.90;;;23.60;99.90;;;;;;5018454;28;20262;-70
2023/07/14 08:38:44;;;;;;;1999.90;999.90;;;23.60;99.90;;;;;;5005276;28;20176;-70
2023/07/14 08:41:29;;;;;;;1999.90;999.90;;;23.60;99.90;;;;;;5013667;28;20185;-70
2023/07/14 08:44:13;;;;;;;1999.90;999.90;;;23.60;99.90;;;;;;5013623;28;20181;-68
2023/07/14 08:47:15;;;;;;;1999.90;999.90;;;23.70;99.90;;;;;;5013346;28;20403;-70
2023/07/14 08:49:55;;;;;;;1999.90;999.90;;;23.90;99.90;;;;;;5013298;28;20465;-68
2023/07/14 08:52:28;;;;;;;1999.90;999.90;;;24.10;99.90;;;;;;5018008;28;20938;-69
2023/07/14 08:55:03;;;;;;;1999.90;999.90;;;24.30;99.90;;;;;;5004955;28;20408;-70
2023/07/14 08:57:30;;;;;;;1999.90;999.90;;;24.40;99.90;;;;;;5013071;28;20421;-70
2023/07/14 09:00:00;;;;;;;1999.90;999.90;;;24.50;99.20;;;;;;5013174;28;20437;-70
2023/07/14 09:02:41;;;;;;;1999.90;999.90;;;24.60;98.40;;;;;;5012858;28;20507;-70
2023/07/14 09:05:44;;;;;;;1999.90;999.90;;;24.60;97.70;;;;;;5013412;28;20502;-72
2023/07/14 09:08:11;;;;;;;1999.90;999.90;;;24.80;97.10;;;;;;4992074;28;20438;-71
2023/07/14 09:10:49;;;;;;;1999.90;999.90;;;24.80;96.30;;;;;;5010466;28;20415;-69
2023/07/14 09:13:25;;;;;;;1999.90;999.90;;;24.80;94.40;;;;;;5000037;28;20971;-69
2023/07/14 09:15:51;;;;;;;1999.90;999.90;;;24.80;93.40;;;;;;5000506;28;20391;-71
2023/07/14 09:18:35;;;;;;;1999.90;999.90;;;24.80;93.50;;;;;;5006451;28;20387;-73
2023/07/14 09:21:31;;;;;;;1999.90;999.90;;;24.70;91.20;;;;;;5013108;28;20193;-73
2023/07/14 09:24:03;;;;;;;1999.90;999.90;;;24.70;91.70;;;;;;4992326;28;20567;-72
2023/07/14 09:26:36;;;;;;;1999.90;999.90;;;24.80;89.60;;;;;;5003368;28;20474;-71
2023/07/14 09:29:16;;;;;;;1999.90;999.90;;;25.00;90.40;;;;;;5000171;28;20445;-69
2023/07/14 09:32:17;;;;;;;1999.90;999.90;;;25.20;88.30;;;;;;5008273;28;21094;-70
2023/07/14 09:34:53;;;;;;;1999.90;999.90;;;25.30;84.30;;;;;;4988341;28;20399;-70
2023/07/14 09:37:36;;;;;;;1999.90;999.90;;;25.30;74.60;;;;;;5009333;28;20442;-70
2023/07/14 09:40:17;;;;;;;1999.90;999.90;;;25.30;75.30;;;;;;5005094;28;20774;-70
2023/07/14 09:42:54;;;;;;;1999.90;999.90;;;25.60;66.40;;;;;;5003620;28;20431;-72
2023/07/14 09:45:27;;;;;;;1999.90;999.90;;;25.60;61.40;;;;;;5007742;28;20476;-72
2023/07/14 09:48:19;;;;;;;1999.90;999.90;;;25.70;61.90;;;;;;5003833;28;20432;-72
2023/07/14 09:51:15;;;;;;;1999.90;999.90;;;25.80;62.60;;;;;;5012731;28;20461;-70
2023/07/14 09:54:01;;;;;;;1999.90;999.90;;;25.90;58.70;;;;;;5012310;28;20987;-72
2023/07/14 09:56:37;;;;;;;1999.90;999.90;;;26.10;58.50;;;;;;5012782;28;20884;-73
2023/07/14 09:59:06;;;;;;;1999.90;999.90;;;26.20;56.60;;;;;;5012337;28;20791;-72
2023/07/14 10:01:33;;;;;;;1999.90;999.90;;;26.20;54.40;;;;;;5009501;28;20410;-72
2023/07/14 10:04:15;;;;;;;1999.90;999.90;;;26.30;57.70;;;;;;5006782;28;20423;-70
2023/07/14 10:06:41;;;;;;;1999.90;999.90;;;26.10;55.40;;;;;;5015077;28;20181;-73
2023/07/14 10:09:11;;;;;;;1999.90;999.90;;;25.90;52.10;;;;;;5018272;28;20374;-71
2023/07/14 10:11:46;;;;;;;1999.90;999.90;;;25.90;57.00;;;;;;5015103;28;20192;-70
2023/07/14 10:14:21;;;;;;;1999.90;999.90;;;25.90;54.50;;;;;;5012312;28;20386;-71
2023/07/14 10:16:48;;;;;;;1999.90;999.90;;;26.10;52.00;;;;;;5011694;28;20452;-71
2023/07/14 10:19:16;;;;;;;1999.90;999.90;;;26.30;48.40;;;;;;5006548;28;20870;-70
2023/07/14 10:21:58;;;;;;;1999.90;999.90;;;26.30;42.70;;;;;;4992563;28;20500;-70
2023/07/14 10:24:24;;;;;;;1999.90;999.90;;;26.40;44.70;;;;;;5000342;28;21079;-70
2023/07/14 10:26:59;;;;;;;1999.90;999.90;;;26.50;40.40;;;;;;5005276;28;20462;-70
2023/07/14 10:29:26;;;;;;;1999.90;999.90;;;26.70;40.20;;;;;;5011707;28;20183;-70
2023/07/14 10:32:09;;;;;;;1999.90;999.90;;;27.00;39.70;;;;;;5012055;28;20583;-68
2023/07/14 10:34:52;;;;;;;1999.90;999.90;;;27.20;41.00;;;;;;5013540;28;20783;-68
2023/07/14 10:37:27;;;;;;;1999.90;999.90;;;27.60;37.20;;;;;;5003546;28;20408;-68
2023/07/14 10:40:14;;;;;;;1999.90;999.90;;;28.00;29.30;;;;;;5012140;28;20397;-68
2023/07/14 10:43:15;;;;;;;1999.90;999.90;;;28.10;27.50;;;;;;5010544;28;20424;-69
2023/07/14 10:45:47;;;;;;;1999.90;999.90;;;28.00;23.20;;;;;;4976240;28;20479;-68
2023/07/14 10:48:33;;;;;;;1999.90;999.90;;;27.90;21.60;;;;;;5012235;28;20382;-71
2023/07/14 10:51:24;;;;;;;1999.90;999.90;;;27.70;21.30;;;;;;5011982;28;20406;-68
2023/07/14 10:53:58;;;;;;;1999.90;999.90;;;27.80;21.10;;;;;;5011562;28;20833;-68
2023/07/14 10:56:33;;;;;;;1999.90;999.90;;;27.80;20.90;;;;;;5012579;28;20388;-68
2023/07/14 10:59:06;;;;;;;1999.90;999.90;;;27.50;21.60;;;;;;5011819;28;20858;-68
2023/07/14 11:01:36;;;;;;;1999.90;999.90;;;27.40;20.70;;;;;;5011333;28;20410;-68
2023/07/14 11:05:06;;;;;;;1999.90;999.90;;;27.30;21.10;;;;;;5012322;28;20441;-68
2023/07/14 11:07:34;;;;;;;1999.90;999.90;;;27.20;19.70;;;;;;4966929;28;20414;-68
2023/07/14 11:10:01;;;;;;;1999.90;999.90;;;27.30;20.90;;;;;;4970332;28;20405;-68
2023/07/14 11:12:48;;;;;;;1999.90;999.90;;;27.70;21.00;;;;;;4998152;28;20414;-68
2023/07/14 11:15:22;;;;;;;1999.90;999.90;;;27.80;17.90;;;;;;5015028;28;20402;-68
2023/07/14 11:18:18;;;;;;;1999.90;999.90;;;27.80;15.50;;;;;;5016082;28;20758;-69
2023/07/14 11:21:08;;;;;;;1999.90;999.90;;;27.70;17.40;;;;;;5015688;28;20406;-69
2023/07/14 11:23:48;;;;;;;1999.90;999.90;;;27.80;16.30;;;;;;4994300;28;20839;-68
2023/07/14 11:26:19;;;;;;;1999.90;999.90;;;28.00;17.80;;;;;;5015458;28;20463;-69
2023/07/14 11:29:04;;;;;;;1999.90;999.90;;;28.40;15.90;;;;;;5014954;28;20370;-69
2023/07/14 11:31:34;;;;;;;1999.90;999.90;;;28.60;14.50;;;;;;5015331;28;20454;-68
2023/07/14 11:34:22;;;;;;;1999.90;999.90;;;28.80;13.00;;;;;;5015377;28;20823;-68
2023/07/14 11:37:17;;;;;;;1999.90;999.90;;;28.90;16.20;;;;;;5014830;28;20466;-68
2023/07/14 11:39:58;;;;;;;1999.90;999.90;;;29.30;13.50;;;;;;5015074;28;20400;-68
2023/07/14 11:42:32;;;;;;;1999.90;999.90;;;29.50;11.90;;;;;;5014781;28;20419;-68
2023/07/14 11:45:00;;;;;;;1999.90;999.90;;;29.40;10.80;;;;;;5014822;28;20453;-69
2023/07/14 11:47:38;;;;;;;1999.90;999.90;;;29.50;10.60;;;;;;5015540;28;20808;-68
2023/07/14 11:50:28;;;;;;;1999.90;999.90;;;29.40;8.70;;;;;;5015313;28;20872;-69
2023/07/14 11:53:06;;;;;;;1999.90;999.90;;;30.00;9.80;;;;;;5014331;28;20832;-69
2023/07/14 11:55:34;;;;;;;1999.90;999.90;;;30.30;8.70;;;;;;5014877;28;20846;-69
2023/07/14 11:58:05;;;;;;;1999.90;999.90;;;30.40;6.20;;;;;;5014212;28;20807;-69
2023/07/14 12:00:59;;;;;;;1999.90;999.90;;;30.50;6.80;;;;;;5014702;28;20527;-69
2023/07/14 12:03:30;;;;;;;1999.90;999.90;;;30.80;5.00;;;;;;5014801;28;20495;-69
2023/07/14 12:06:20;;;;;;;1999.90;999.90;;;31.10;4.80;;;;;;5013944;28;20451;-68
2023/07/14 12:09:04;;;;;;;1999.90;999.90;;;31.30;2.30;;;;;;5014730;28;20487;-68
2023/07/14 12:11:46;;;;;;;1999.90;999.90;;;31.40;1.80;;;;;;5014467;28;20458;-69
2023/07/14 12:14:29;;;;;;;1999.90;999.90;;;31.50;2.40;;;;;;5014209;28;20837;-68
2023/07/14 12:16:57;;;;;;;1999.90;999.90;;;31.80;1.30;;;;;;5014595;28;20400;-68